ENBO Airport Information

Runway Information
Runway 07 Length 11136 ft width 148 ft
Elevation 17 ft Threshold 1969 ft Heading 78
Runway 25 Length 11136 ft Width 148 ft
Elevation 39 ft Threshold 0 ft Heading 258
Airport Frequencies
Type A/D Name APP/DEP Frequency 119.7 MHZ
Type ATIS Name ATIS Frequency 123.9 MHZ
Type TWR Name TWR Frequency 118.1 MHZ
Airport Navaids
Type VOR-DME Name Bodo Frequency 117200 KHZ
Type TACAN Name Bodo Frequency 110800 KHZ
Type NDB Name Fleinvaer Frequency 374 KHZ
Type NDB Name Fauske Frequency 326 KHZ
Type NDB Name Stott Frequency 317 KHZ
Airport Weather Information & NOTAM
ADDS - METARS form results

(0855 UTC 01 June 2020)
Data provider http://aviationweather.gov/metar/data/
 
METAR text: ENBO 010850Z 29007KT CAVOK 16/07 Q1028 NOSIG
Conditions at: ENBO (BODO VI (CIV/MIL, NO) observed 0850 UTC 01 June 2020
Temperature: 16.0°C (61°F)
Dewpoint: 7.0°C (45°F) [RH = 55%]
Pressure (altimeter): 30.35 inches Hg (1028.0 mb)
Winds: from the WNW (290 degrees) at 8 MPH (7 knots; 3.6 m/s)
Visibility: 6 or more miles (10+ km)
Ceiling: ceiling and visibility are OK
Clouds: unknown
Weather: no significant weather observed at this time

METAR text: ENBO 010820Z 32004KT CAVOK 16/08 Q1028 NOSIG
Conditions at: ENBO (BODO VI (CIV/MIL, NO) observed 0820 UTC 01 June 2020
Temperature: 16.0°C (61°F)
Dewpoint: 8.0°C (46°F) [RH = 59%]
Pressure (altimeter): 30.35 inches Hg (1028.0 mb)
Winds: from the NW (320 degrees) at 5 MPH (4 knots; 2.1 m/s)
Visibility: 6 or more miles (10+ km)
Ceiling: ceiling and visibility are OK
Clouds: unknown
Weather: no significant weather observed at this time

Forecast for: AMD
Text: TAF AMD ENBO 0108/0206 28008KT CAVOK
Forecast period: 0800 to 2300 UTC 01 June 2020
Forecast type: FROM: standard forecast or significant change
Winds: from the W (280 degrees) at 9 MPH (8 knots; 4.1 m/s)
Visibility: 6 or more miles 10+ km)
Ceiling: unknown
Clouds: missing
Weather: NSW  (no significant weather)
Text: BECMG 0123/0202 10010KT
Forecast period: 2300 UTC 01 June 2020 to 0600 UTC 02 June 2020
Forecast type: BECOMING: Conditions expected to become as follows by 0200 UTC 02 June 2020
Winds: from the E (100 degrees) at 12 MPH (10 knots; 5.1 m/s)
Visibility: 6 or more miles 10+ km)
Ceiling: unknown
Clouds: missing
Weather: NSW  (no significant weather)